createdAt,value
2022-08-08T00:00:53.279Z,14.90
2022-08-08T00:06:07.891Z,14.80
2022-08-08T00:11:46.720Z,14.70
2022-08-08T00:17:02.753Z,14.70
2022-08-08T00:22:22.603Z,14.50
2022-08-08T00:27:32.876Z,14.50
2022-08-08T00:32:50.199Z,14.20
2022-08-08T00:38:32.507Z,14.20
2022-08-08T00:44:29.040Z,14.30
2022-08-08T00:49:42.819Z,14.20
2022-08-08T00:55:22.292Z,14.10
2022-08-08T01:00:54.687Z,14.20
2022-08-08T01:06:27.158Z,14.20
2022-08-08T01:11:37.751Z,14.30
2022-08-08T01:17:03.241Z,14.30
2022-08-08T01:22:50.516Z,14.40
2022-08-08T01:28:18.060Z,14.10
2022-08-08T01:33:53.945Z,14.10
2022-08-08T01:39:28.747Z,14.10
2022-08-08T01:45:23.540Z,14.00
2022-08-08T01:50:52.371Z,14.00
2022-08-08T01:56:34.465Z,13.70
2022-08-08T02:02:07.376Z,13.70
2022-08-08T02:07:50.559Z,13.80
2022-08-08T02:13:06.898Z,13.70
2022-08-08T02:18:31.615Z,13.70
2022-08-08T02:23:45.721Z,13.60
2022-08-08T02:29:35.842Z,13.40
2022-08-08T02:35:08.023Z,13.50
2022-08-08T02:40:55.693Z,13.50
2022-08-08T02:46:20.040Z,13.20
2022-08-08T02:51:38.977Z,13.20
2022-08-08T02:57:12.122Z,13.40
2022-08-08T03:02:50.634Z,13.20
2022-08-08T03:08:28.503Z,13.30
2022-08-08T03:16:01.433Z,13.30
2022-08-08T03:19:23.676Z,13.40
2022-08-08T03:24:26.152Z,13.10
2022-08-08T03:29:51.235Z,13.10
2022-08-08T03:34:58.806Z,12.90
2022-08-08T03:40:03.942Z,12.80
2022-08-08T03:46:04.807Z,12.80
2022-08-08T03:50:52.732Z,13.00
2022-08-08T03:56:04.374Z,13.00
2022-08-08T04:01:24.329Z,13.10
2022-08-08T04:06:31.603Z,13.10
2022-08-08T04:11:59.012Z,13.20
2022-08-08T04:17:45.647Z,13.30
2022-08-08T04:22:43.389Z,13.30
2022-08-08T04:28:02.377Z,13.60
2022-08-08T04:33:10.075Z,13.70
2022-08-08T04:38:21.829Z,14.30
2022-08-08T04:43:32.514Z,15.10
2022-08-08T04:48:53.187Z,15.40
2022-08-08T04:54:38.953Z,15.90
2022-08-08T04:59:18.604Z,16.20
2022-08-08T05:04:28.635Z,16.70
2022-08-08T05:09:31.754Z,17.10
2022-08-08T05:14:39.434Z,17.70
2022-08-08T05:20:09.883Z,18.30
2022-08-08T05:25:10.713Z,18.20
2022-08-08T05:30:13.350Z,18.30
2022-08-08T05:35:25.403Z,18.80
2022-08-08T05:40:33.243Z,19.00
2022-08-08T05:45:43.246Z,19.10
2022-08-08T05:50:58.975Z,19.50
2022-08-08T05:56:17.310Z,19.80
2022-08-08T06:01:56.142Z,19.90
2022-08-08T06:06:48.130Z,20.20
2022-08-08T06:11:57.355Z,20.40
2022-08-08T06:17:01.642Z,20.60
2022-08-08T06:22:37.270Z,21.10
2022-08-08T06:27:56.289Z,21.30
2022-08-08T06:33:02.252Z,21.50
2022-08-08T06:38:09.344Z,21.80
2022-08-08T06:43:33.811Z,22.40
2022-08-08T06:48:39.043Z,22.80
2022-08-08T06:53:50.853Z,22.70
2022-08-08T06:59:00.414Z,22.90
2022-08-08T07:04:37.248Z,22.70
2022-08-08T07:09:45.586Z,23.10
2022-08-08T07:15:23.459Z,23.20
2022-08-08T07:20:54.330Z,23.40
2022-08-08T07:26:02.687Z,23.40
2022-08-08T07:31:06.629Z,23.90
2022-08-08T07:36:17.210Z,24.00
2022-08-08T07:41:25.237Z,24.40
2022-08-08T07:46:31.877Z,24.70
2022-08-08T07:51:53.321Z,24.40
2022-08-08T07:57:03.452Z,24.40
2022-08-08T08:02:36.909Z,24.80
2022-08-08T08:07:43.000Z,25.20
2022-08-08T08:12:57.897Z,25.00
2022-08-08T08:18:06.214Z,24.90
2022-08-08T08:23:17.682Z,25.60
2022-08-08T08:28:24.318Z,25.30
2022-08-08T08:33:33.241Z,25.30
2022-08-08T08:38:38.561Z,25.60
2022-08-08T08:44:13.393Z,25.60
2022-08-08T08:49:50.923Z,25.50
2022-08-08T08:54:58.666Z,25.90
2022-08-08T09:00:05.552Z,25.50
2022-08-08T09:05:13.908Z,26.20
2022-08-08T09:10:33.246Z,25.90
2022-08-08T09:15:41.732Z,26.50
2022-08-08T09:22:01.169Z,26.20
2022-08-08T09:26:27.018Z,26.50
2022-08-08T09:31:42.371Z,26.80
2022-08-08T09:37:57.007Z,26.70
2022-08-08T09:43:06.824Z,26.70
2022-08-08T09:48:26.957Z,26.80
2022-08-08T09:54:03.361Z,27.00
2022-08-08T09:59:50.471Z,27.80
2022-08-08T10:04:41.938Z,27.80
2022-08-08T10:09:59.687Z,27.70
2022-08-08T10:15:18.291Z,27.10
2022-08-08T10:20:40.188Z,27.20
2022-08-08T10:25:56.064Z,27.50
2022-08-08T10:31:46.692Z,27.80
2022-08-08T10:36:46.670Z,27.50
2022-08-08T10:41:58.904Z,27.50
2022-08-08T10:47:21.236Z,27.90
2022-08-08T10:52:33.216Z,28.60
2022-08-08T10:57:50.729Z,28.00
2022-08-08T11:02:56.582Z,28.10
2022-08-08T11:08:37.138Z,28.30
2022-08-08T11:13:31.961Z,28.30
2022-08-08T11:18:38.108Z,27.10
2022-08-08T11:23:44.192Z,27.10
2022-08-08T11:28:47.173Z,27.30
2022-08-08T11:34:02.998Z,27.10
2022-08-08T11:39:10.820Z,26.70
2022-08-08T11:44:15.939Z,26.50
2022-08-08T11:49:19.042Z,26.50
2022-08-08T11:54:44.538Z,26.70
2022-08-08T12:00:05.882Z,26.50
2022-08-08T12:05:19.068Z,26.50
2022-08-08T12:10:30.234Z,26.60
2022-08-08T12:15:39.978Z,26.70
2022-08-08T12:20:46.027Z,26.80
2022-08-08T12:25:55.001Z,26.90
2022-08-08T12:31:07.000Z,26.50
2022-08-08T12:36:14.376Z,26.60
2022-08-08T12:41:35.134Z,26.50
2022-08-08T12:47:00.254Z,26.70
2022-08-08T12:52:05.266Z,26.50
2022-08-08T12:57:29.088Z,26.30
2022-08-08T13:02:36.156Z,26.40
2022-08-08T13:08:02.887Z,26.80
2022-08-08T13:13:05.963Z,27.40
2022-08-08T13:18:14.105Z,28.10
2022-08-08T13:23:36.174Z,28.20
2022-08-08T13:28:46.028Z,28.20
2022-08-08T13:33:54.411Z,28.00
2022-08-08T13:38:59.302Z,27.20
2022-08-08T13:44:03.055Z,26.70
2022-08-08T13:50:33.805Z,26.30
2022-08-08T13:54:49.589Z,26.60
2022-08-08T14:00:08.254Z,26.70
2022-08-08T14:05:22.014Z,26.50
2022-08-08T14:10:33.475Z,26.40
2022-08-08T14:15:46.353Z,26.10
2022-08-08T14:21:02.634Z,26.30
2022-08-08T14:26:11.000Z,26.50
2022-08-08T14:31:23.235Z,26.40
2022-08-08T14:36:40.542Z,26.10
2022-08-08T14:41:53.548Z,26.40
2022-08-08T14:47:01.198Z,26.70
2022-08-08T14:52:08.717Z,26.70
2022-08-08T14:57:11.155Z,26.60
2022-08-08T15:02:15.533Z,26.80
2022-08-08T15:07:21.435Z,26.70
2022-08-08T15:12:27.602Z,26.70
2022-08-08T15:17:30.396Z,26.60
2022-08-08T15:22:34.985Z,26.50
2022-08-08T15:28:04.814Z,26.20
2022-08-08T15:33:00.264Z,26.10
2022-08-08T15:38:09.891Z,26.10
2022-08-08T15:43:18.737Z,25.90
2022-08-08T15:48:38.955Z,25.70
2022-08-08T15:53:50.158Z,25.80
2022-08-08T15:58:53.102Z,25.70
2022-08-08T16:03:56.225Z,25.60
2022-08-08T16:13:00.978Z,25.70
2022-08-08T16:14:33.309Z,25.60
2022-08-08T16:19:57.099Z,25.50
2022-08-08T16:24:58.899Z,25.40
2022-08-08T16:30:14.646Z,25.30
2022-08-08T16:35:22.961Z,25.20
2022-08-08T16:40:25.783Z,25.20
2022-08-08T16:46:43.735Z,25.00
2022-08-08T16:50:54.670Z,25.00
2022-08-08T16:56:00.505Z,25.00
2022-08-08T17:01:11.192Z,24.90
2022-08-08T17:06:36.363Z,24.80
2022-08-08T17:11:48.570Z,24.70
2022-08-08T17:16:58.790Z,24.70
2022-08-08T17:22:09.734Z,24.70
2022-08-08T17:27:12.110Z,24.60
2022-08-08T17:32:15.400Z,24.50
2022-08-08T17:37:19.589Z,24.40
2022-08-08T17:42:22.065Z,24.30
2022-08-08T17:47:28.154Z,24.20
2022-08-08T17:52:43.565Z,24.10
2022-08-08T17:57:52.890Z,24.00
2022-08-08T18:03:07.889Z,23.90
2022-08-08T18:08:24.007Z,23.80
2022-08-08T18:13:41.632Z,23.70
2022-08-08T18:18:52.430Z,23.60
2022-08-08T18:23:57.987Z,23.50
2022-08-08T18:29:02.019Z,23.40
2022-08-08T18:34:18.650Z,23.30
2022-08-08T18:39:30.078Z,23.20
2022-08-08T18:44:35.828Z,23.00
2022-08-08T18:49:57.842Z,22.90
2022-08-08T18:55:10.826Z,22.80
2022-08-08T19:00:20.372Z,22.70
2022-08-08T19:05:30.448Z,22.60
2022-08-08T19:10:37.564Z,22.40
2022-08-08T19:15:44.500Z,22.30
2022-08-08T19:20:47.191Z,22.20
2022-08-08T19:26:20.403Z,22.10
2022-08-08T19:31:13.146Z,22.10
2022-08-08T19:36:25.054Z,22.00
2022-08-08T19:41:33.603Z,22.00
2022-08-08T19:46:36.278Z,21.90
2022-08-08T19:51:41.374Z,21.80
2022-08-08T19:56:49.248Z,21.80
2022-08-08T20:02:01.399Z,21.70
2022-08-08T20:08:28.909Z,21.60
2022-08-08T20:12:32.713Z,21.50
2022-08-08T20:17:40.420Z,21.50
2022-08-08T20:22:44.680Z,21.50
2022-08-08T20:27:50.578Z,21.50
2022-08-08T20:32:56.637Z,21.30
2022-08-08T20:37:59.849Z,21.20
2022-08-08T20:43:16.220Z,21.30
2022-08-08T20:48:26.110Z,21.20
2022-08-08T20:53:59.584Z,21.10
2022-08-08T20:58:53.107Z,21.00
2022-08-08T21:03:59.992Z,21.10
2022-08-08T21:09:04.441Z,21.00
2022-08-08T21:14:07.616Z,21.00
2022-08-08T21:19:10.930Z,20.90
2022-08-08T21:24:26.955Z,20.90
2022-08-08T21:30:05.299Z,20.90
2022-08-08T21:34:56.630Z,20.80
2022-08-08T21:39:59.416Z,20.80
2022-08-08T21:45:44.076Z,20.80
2022-08-08T21:50:25.202Z,20.80
2022-08-08T21:56:19.421Z,20.70
2022-08-08T22:00:50.192Z,20.60
2022-08-08T22:05:58.496Z,20.60
2022-08-08T22:11:00.886Z,20.60
2022-08-08T22:16:04.974Z,20.50
2022-08-08T22:21:14.157Z,20.40
2022-08-08T22:26:29.154Z,20.30
2022-08-08T22:31:35.090Z,20.30
2022-08-08T22:36:37.921Z,20.30
2022-08-08T22:41:41.656Z,20.30
2022-08-08T22:46:45.736Z,20.20
2022-08-08T22:51:48.370Z,20.20
2022-08-08T22:56:50.966Z,20.10
2022-08-08T23:02:02.711Z,20.00
2022-08-08T23:07:06.525Z,20.00
2022-08-08T23:12:28.556Z,19.80
2022-08-08T23:17:31.291Z,19.70
2022-08-08T23:22:49.019Z,19.50
2022-08-08T23:27:54.259Z,19.30
2022-08-08T23:32:57.206Z,19.30
2022-08-08T23:38:03.871Z,19.20
2022-08-08T23:43:06.537Z,19.10
2022-08-08T23:49:05.198Z,19.00
2022-08-08T23:53:56.069Z,19.00
2022-08-08T23:58:55.387Z,19.00
